Riva, Maryland
Current Conditions -  °F | °C
As of 6:54 AM on Sunday 21 Dec 2014 (Local Time) from KNAK Reporting Station
Overcast Overcast  
Wind Chill: 34°   Ceiling: 7000
Heat Index: 34°   Visibility: 7mi
Dew Point: 26°   Wind: 3mph
Humidity: 73%   Direction: 330°NNW
Pressure: 30.34"   Gusts: NA
Location:  38.95°N, 76.59°W
Report Text: KNAK 211154Z AUTO 33003KT 7SM OVC070 01/M03 A3034 RMK AO2 SLP274 T00111033 10017 20006 53012
Loading
Personal Weather Stations






























Interactive Weather Map New forecast layout! Learn more

10-Day Weather Forecast

Advertisements
Track Severe Weather on mobile